الصفحة الرئيسية
METAR-TAF:

METAR-TAF

مطار :

مطار يميلانو الدولي

كراسنويارسك, روسيا

دائرة عرض: 56-10-18N, خط طول: 092-29-36E, ارتفاع: 287 متر

مراقبة الطقس الحالي

تاريخ ووقت الإصدار 41 دقيقة قبل الساعة 08:30UTC
ريح 8 عقدة من الغرب/الشمال الغربي
درجة الحرارة -5°درجة مئوية
الرطوبة 58%
ضغط 1020 hPa
الرؤية 10 كم أو أكثر
غيوم متفرقة على ارتفاع 3400 قدم, مزنة ركامية.

METAR: UNKL 020830Z 29004MPS 9999 SCT034CB M05/M12 Q1020 R29/190050 NOSIG RMK QFE739

زمن: 16:11 (09:11 UTC)

توقعات

تاريخ ووقت الإصدار 1ساعة و 21 دقيقة قبل الساعة 07:50UTC
التوقعات صالحة من02 الساعة 09 UTC إلى 03 الساعة 09 UTC
ريح 6 عقدة من الغرب/الشمال الغربي تتزايد حتى 16 عقدة
الرؤية: 6000 متر
غيوم مفككة على ارتفاع 1600 قدم, مزنة ركامية.
زخات ثلجية خفيفة
مؤقت
من 02 الساعة 09 UTC إلى 02 الساعة 12 UTC
ريح 10 عقدة من الشمال
الرؤية: 2000 متر
زخات ثلجية,

TAF: UNKL 020750Z 0209/0309 30003G08MPS 6000 -SHSN BKN016CB TEMPO 0209/0212 35005MPS 2000 SHSN

أرصاد الطقس والتوقعات من أكثر من 4000 مطار (تقارير الطقس للمطار METAR والتنبؤ بالطقس بالمطارTAF).

المحطات المتاحة هي النقط الصفراء والحمراء على الخريطة.

حرك المؤشر فوق النقطة لمعرفة اسم المحطة.

ثم انقر لمعرفة أرصاد وتوقعات الطقس.

لتغيير الخارطة: اضغط على الأزرار الخضراء مع رمز الصليب الأسود للتكبير. على الزر الأخضر مع شرطة للتصغير، أو على الأسهم الخضراء للخرائط المجاورة.


METAR-TAF: